createdAt,value
2022-07-28T00:00:49.316Z,15.62
2022-07-28T00:01:49.380Z,15.62
2022-07-28T00:02:49.352Z,15.64
2022-07-28T00:03:49.379Z,15.65
2022-07-28T00:04:49.255Z,15.65
2022-07-28T00:05:49.920Z,15.70
2022-07-28T00:06:49.237Z,15.70
2022-07-28T00:07:49.219Z,15.72
2022-07-28T00:08:49.202Z,15.70
2022-07-28T00:09:49.210Z,15.68
2022-07-28T00:10:49.212Z,15.70
2022-07-28T00:11:54.138Z,15.68
2022-07-28T00:12:49.154Z,15.67
2022-07-28T00:13:49.142Z,15.67
2022-07-28T00:14:49.123Z,15.68
2022-07-28T00:15:49.159Z,15.64
2022-07-28T00:16:49.262Z,15.59
2022-07-28T00:17:49.087Z,15.58
2022-07-28T00:18:49.081Z,15.57
2022-07-28T00:19:49.098Z,15.57
2022-07-28T00:20:49.086Z,15.54
2022-07-28T00:21:49.063Z,15.55
2022-07-28T00:22:49.025Z,15.55
2022-07-28T00:23:49.007Z,15.54
2022-07-28T00:24:49.307Z,15.49
2022-07-28T00:25:49.013Z,15.47
2022-07-28T00:26:48.969Z,15.44
2022-07-28T00:27:48.991Z,15.46
2022-07-28T00:28:48.942Z,15.46
2022-07-28T00:29:50.939Z,15.46
2022-07-28T00:30:48.910Z,15.46
2022-07-28T00:31:49.012Z,15.47
2022-07-28T00:32:48.896Z,15.47
2022-07-28T00:33:48.923Z,15.47
2022-07-28T00:34:48.862Z,15.46
2022-07-28T00:35:48.847Z,15.44
2022-07-28T00:36:48.833Z,15.44
2022-07-28T00:37:49.213Z,15.44
2022-07-28T00:38:48.983Z,15.43
2022-07-28T00:39:48.803Z,15.43
2022-07-28T00:40:48.787Z,15.43
2022-07-28T00:41:48.764Z,15.43
2022-07-28T00:42:48.826Z,15.43
2022-07-28T00:43:48.792Z,15.42
2022-07-28T00:44:48.732Z,15.42
2022-07-28T00:45:48.715Z,15.42
2022-07-28T00:46:48.749Z,15.42
2022-07-28T00:47:48.695Z,15.40
2022-07-28T00:48:48.779Z,15.42
2022-07-28T00:49:48.676Z,15.39
2022-07-28T00:50:48.665Z,15.39
2022-07-28T00:51:48.636Z,15.40
2022-07-28T00:52:48.621Z,15.39
2022-07-28T00:53:48.638Z,15.39
2022-07-28T00:54:48.618Z,15.40
2022-07-28T00:56:05.413Z,15.37
2022-07-28T00:56:48.575Z,15.36
2022-07-28T00:57:48.578Z,15.31
2022-07-28T00:58:48.542Z,15.31
2022-07-28T00:59:48.557Z,15.27
2022-07-28T01:00:48.514Z,15.19
2022-07-28T01:01:48.619Z,15.14
2022-07-28T01:02:48.555Z,15.14
2022-07-28T01:03:48.477Z,15.14
2022-07-28T01:04:48.491Z,15.15
2022-07-28T01:05:48.448Z,15.14
2022-07-28T01:06:48.441Z,15.14
2022-07-28T01:07:48.429Z,15.11
2022-07-28T01:08:48.414Z,15.10
2022-07-28T01:09:48.423Z,15.11
2022-07-28T01:10:48.404Z,15.10
2022-07-28T01:11:48.411Z,15.11
2022-07-28T01:12:48.380Z,15.11
2022-07-28T01:13:48.342Z,15.09
2022-07-28T01:14:48.359Z,15.11
2022-07-28T01:15:48.385Z,15.11
2022-07-28T01:16:48.306Z,15.10
2022-07-28T01:17:48.289Z,15.11
2022-07-28T01:18:48.285Z,15.07
2022-07-28T01:19:48.295Z,15.06
2022-07-28T01:20:48.266Z,15.04
2022-07-28T01:21:48.320Z,15.02
2022-07-28T01:22:48.229Z,15.00
2022-07-28T01:23:48.206Z,14.99
2022-07-28T01:24:48.215Z,14.97
2022-07-28T01:25:48.794Z,14.94
2022-07-28T01:26:48.170Z,14.91
2022-07-28T01:27:48.160Z,14.86
2022-07-28T01:28:48.147Z,14.88
2022-07-28T01:29:48.135Z,14.86
2022-07-28T01:30:48.225Z,14.88
2022-07-28T01:31:48.260Z,14.88
2022-07-28T01:32:48.140Z,14.89
2022-07-28T01:33:48.079Z,14.86
2022-07-28T01:34:48.090Z,14.88
2022-07-28T01:35:48.078Z,14.89
2022-07-28T01:36:48.074Z,14.89
2022-07-28T01:37:48.050Z,14.88
2022-07-28T01:38:48.053Z,14.85
2022-07-28T01:39:47.993Z,14.85
2022-07-28T01:40:50.249Z,14.85
2022-07-28T01:41:47.983Z,14.84
2022-07-28T01:42:47.966Z,14.84
2022-07-28T01:43:47.967Z,14.82
2022-07-28T01:44:47.940Z,14.84
2022-07-28T01:45:47.913Z,14.82
2022-07-28T01:46:48.001Z,14.84
2022-07-28T01:47:47.921Z,14.84
2022-07-28T01:48:47.925Z,14.84
2022-07-28T01:49:47.864Z,14.84
2022-07-28T01:50:47.859Z,14.82
2022-07-28T01:51:47.852Z,14.79
2022-07-28T01:52:47.824Z,14.78
2022-07-28T01:53:47.815Z,14.77
2022-07-28T01:54:47.812Z,14.73
2022-07-28T01:55:47.782Z,14.72
2022-07-28T01:56:47.789Z,14.70
2022-07-28T01:57:47.778Z,14.70
2022-07-28T01:58:47.747Z,14.69
2022-07-28T01:59:47.751Z,14.68
2022-07-28T02:00:47.715Z,14.65
2022-07-28T02:01:47.757Z,14.62
2022-07-28T02:02:47.717Z,14.62
2022-07-28T02:03:47.670Z,14.58
2022-07-28T02:04:47.718Z,14.55
2022-07-28T02:05:47.647Z,14.55
2022-07-28T02:06:47.636Z,14.53
2022-07-28T02:07:47.646Z,14.53
2022-07-28T02:08:47.650Z,14.54
2022-07-28T02:09:47.595Z,14.53
2022-07-28T02:10:47.595Z,14.54
2022-07-28T02:11:47.562Z,14.51
2022-07-28T02:12:47.560Z,14.51
2022-07-28T02:13:47.575Z,14.51
2022-07-28T02:14:47.530Z,14.53
2022-07-28T02:15:47.760Z,14.53
2022-07-28T02:16:47.496Z,14.53
2022-07-28T02:17:47.506Z,14.51
2022-07-28T02:18:47.496Z,14.53
2022-07-28T02:19:47.461Z,14.51
2022-07-28T02:20:47.454Z,14.51
2022-07-28T02:21:47.431Z,14.51
2022-07-28T02:22:51.454Z,14.51
2022-07-28T02:23:47.440Z,14.47
2022-07-28T02:24:47.405Z,14.44
2022-07-28T02:25:47.375Z,14.41
2022-07-28T02:26:47.363Z,14.40
2022-07-28T02:27:47.354Z,14.37
2022-07-28T02:28:47.369Z,14.36
2022-07-28T02:29:51.729Z,14.37
2022-07-28T02:30:47.428Z,14.36
2022-07-28T02:31:47.304Z,14.33
2022-07-28T02:32:47.297Z,14.32
2022-07-28T02:33:59.757Z,14.32
2022-07-28T02:34:47.282Z,14.32
2022-07-28T02:35:48.938Z,14.32
2022-07-28T02:36:48.465Z,14.29
2022-07-28T02:37:47.221Z,14.29
2022-07-28T02:38:47.211Z,14.28
2022-07-28T02:39:55.310Z,14.28
2022-07-28T02:40:47.206Z,14.28
2022-07-28T02:41:47.183Z,14.30
2022-07-28T02:42:47.154Z,14.29
2022-07-28T02:43:49.832Z,14.26
2022-07-28T02:44:47.127Z,14.25
2022-07-28T02:45:47.239Z,14.22
2022-07-28T02:46:47.122Z,14.20
2022-07-28T02:47:47.093Z,14.18
2022-07-28T02:48:47.154Z,14.20
2022-07-28T02:49:47.057Z,14.18
2022-07-28T02:50:47.070Z,14.20
2022-07-28T02:51:47.035Z,14.22
2022-07-28T02:52:47.017Z,14.25
2022-07-28T02:53:47.008Z,14.23
2022-07-28T02:54:47.001Z,14.25
2022-07-28T02:55:47.014Z,14.23
2022-07-28T02:56:53.220Z,14.25
2022-07-28T02:57:46.958Z,14.25
2022-07-28T02:58:46.939Z,14.25
2022-07-28T02:59:46.947Z,14.23
2022-07-28T03:00:46.913Z,14.22
2022-07-28T03:01:46.931Z,14.22
2022-07-28T03:02:46.898Z,14.20
2022-07-28T03:03:46.887Z,14.17
2022-07-28T03:04:46.981Z,14.17
2022-07-28T03:05:46.863Z,14.20
2022-07-28T03:06:46.838Z,14.18
2022-07-28T03:07:50.969Z,14.17
2022-07-28T03:08:46.812Z,14.15
2022-07-28T03:09:46.789Z,14.17
2022-07-28T03:10:46.795Z,14.15
2022-07-28T03:11:46.787Z,14.17
2022-07-28T03:12:46.799Z,14.15
2022-07-28T03:13:46.733Z,14.15
2022-07-28T03:14:46.721Z,14.15
2022-07-28T03:15:46.730Z,14.17
2022-07-28T03:16:47.697Z,14.15
2022-07-28T03:17:46.703Z,14.14
2022-07-28T03:18:46.710Z,14.12
2022-07-28T03:19:46.652Z,14.12
2022-07-28T03:20:46.665Z,14.11
2022-07-28T03:21:46.624Z,14.12
2022-07-28T03:22:46.634Z,14.11
2022-07-28T03:23:46.620Z,14.11
2022-07-28T03:24:46.603Z,14.10
2022-07-28T03:25:46.650Z,14.08
2022-07-28T03:26:46.561Z,14.04
2022-07-28T03:27:46.546Z,14.00
2022-07-28T03:28:46.566Z,13.97
2022-07-28T03:29:46.533Z,13.96
2022-07-28T03:30:46.605Z,13.96
2022-07-28T03:31:46.490Z,13.93
2022-07-28T03:32:46.506Z,13.96
2022-07-28T03:33:46.463Z,13.96
2022-07-28T03:34:46.459Z,13.96
2022-07-28T03:35:46.492Z,13.95
2022-07-28T03:36:46.445Z,13.92
2022-07-28T03:37:46.417Z,13.90
2022-07-28T03:38:46.406Z,13.89
2022-07-28T03:39:46.403Z,13.87
2022-07-28T03:40:47.130Z,13.87
2022-07-28T03:41:46.354Z,13.87
2022-07-28T03:42:46.344Z,13.87
2022-07-28T03:43:46.400Z,13.87
2022-07-28T03:44:46.344Z,13.89
2022-07-28T03:45:46.698Z,13.89
2022-07-28T03:46:46.289Z,13.92
2022-07-28T03:47:46.388Z,13.90
2022-07-28T03:48:46.315Z,13.90
2022-07-28T03:49:46.261Z,13.90
2022-07-28T03:50:46.293Z,13.89
2022-07-28T03:51:46.217Z,13.87
2022-07-28T03:52:46.252Z,13.87
2022-07-28T03:53:46.226Z,13.87
2022-07-28T03:54:46.194Z,13.89
2022-07-28T03:55:46.173Z,13.89
2022-07-28T03:56:46.166Z,13.89
2022-07-28T03:57:46.157Z,13.89
2022-07-28T03:58:46.163Z,13.87
2022-07-28T03:59:46.115Z,13.86
2022-07-28T04:00:46.191Z,13.86
2022-07-28T04:01:46.131Z,13.83
2022-07-28T04:02:46.156Z,13.83
2022-07-28T04:03:46.058Z,13.83
2022-07-28T04:04:46.080Z,13.77
2022-07-28T04:05:46.098Z,13.74
2022-07-28T04:06:46.024Z,13.71
2022-07-28T04:07:46.046Z,13.71
2022-07-28T04:08:45.997Z,13.68
2022-07-28T04:09:45.990Z,13.68
2022-07-28T04:10:46.021Z,13.68
2022-07-28T04:11:45.959Z,13.65
2022-07-28T04:12:45.950Z,13.65
2022-07-28T04:13:45.931Z,13.67
2022-07-28T04:14:45.947Z,13.65
2022-07-28T04:15:45.912Z,13.65
2022-07-28T04:16:45.971Z,13.68
2022-07-28T04:17:45.877Z,13.70
2022-07-28T04:18:45.867Z,13.74
2022-07-28T04:19:45.870Z,13.74
2022-07-28T04:20:45.951Z,13.77
2022-07-28T04:21:45.829Z,13.78
2022-07-28T04:22:45.814Z,13.81
2022-07-28T04:23:45.816Z,13.85
2022-07-28T04:24:45.777Z,13.87
2022-07-28T04:25:45.880Z,13.86
2022-07-28T04:26:45.778Z,13.87
2022-07-28T04:27:45.739Z,13.87
2022-07-28T04:28:45.731Z,13.87
2022-07-28T04:29:45.712Z,13.89
2022-07-28T04:30:46.099Z,13.89
2022-07-28T04:31:45.704Z,13.87
2022-07-28T04:32:45.675Z,13.89
2022-07-28T04:33:45.656Z,13.92
2022-07-28T04:34:45.668Z,13.95
2022-07-28T04:35:45.625Z,13.92
2022-07-28T04:36:45.646Z,13.95
2022-07-28T04:37:45.632Z,13.96
2022-07-28T04:38:45.595Z,13.96
2022-07-28T04:39:45.648Z,13.96
2022-07-28T04:40:45.574Z,13.99
2022-07-28T04:41:45.548Z,13.97
2022-07-28T04:42:45.582Z,13.96
2022-07-28T04:43:45.624Z,13.95
2022-07-28T04:44:45.506Z,13.97
2022-07-28T04:45:53.303Z,13.96
2022-07-28T04:46:45.561Z,13.96
2022-07-28T04:47:45.494Z,13.97
2022-07-28T04:48:45.534Z,13.99
2022-07-28T04:49:45.474Z,13.99
2022-07-28T04:50:45.435Z,14.00
2022-07-28T04:51:45.413Z,14.03
2022-07-28T04:52:45.425Z,14.00
2022-07-28T04:53:45.394Z,14.03
2022-07-28T04:54:45.394Z,14.00
2022-07-28T04:55:45.373Z,14.03
2022-07-28T04:56:45.352Z,14.03
2022-07-28T04:57:45.652Z,14.04
2022-07-28T04:58:45.328Z,14.07
2022-07-28T04:59:45.349Z,14.07
2022-07-28T05:00:45.401Z,14.07
2022-07-28T05:01:45.341Z,14.07
2022-07-28T05:02:45.271Z,14.10
2022-07-28T05:03:45.257Z,14.08
2022-07-28T05:04:45.308Z,14.11
2022-07-28T05:05:49.171Z,14.14
2022-07-28T05:06:45.216Z,14.15
2022-07-28T05:07:45.212Z,14.15
2022-07-28T05:08:45.285Z,14.15
2022-07-28T05:09:45.179Z,14.12
2022-07-28T05:10:45.188Z,14.12
2022-07-28T05:11:45.148Z,14.12
2022-07-28T05:12:45.143Z,14.14
2022-07-28T05:13:45.163Z,14.14
2022-07-28T05:14:45.114Z,14.15
2022-07-28T05:15:45.148Z,14.22
2022-07-28T05:16:45.131Z,14.25
2022-07-28T05:17:45.088Z,14.29
2022-07-28T05:18:45.081Z,14.30
2022-07-28T05:19:45.075Z,14.35
2022-07-28T05:20:45.023Z,14.36
2022-07-28T05:21:45.010Z,14.41
2022-07-28T05:22:45.019Z,14.45
2022-07-28T05:23:47.658Z,14.50
2022-07-28T05:24:45.002Z,14.53
2022-07-28T05:25:44.986Z,14.55
2022-07-28T05:26:44.944Z,14.59
2022-07-28T05:27:44.943Z,14.62
2022-07-28T05:28:44.946Z,14.65
2022-07-28T05:29:47.735Z,14.69
2022-07-28T05:30:44.921Z,14.77
2022-07-28T05:31:45.003Z,14.79
2022-07-28T05:32:44.861Z,14.84
2022-07-28T05:33:44.885Z,14.85
2022-07-28T05:34:44.883Z,14.89
2022-07-28T05:35:44.828Z,14.91
2022-07-28T05:36:44.816Z,14.96
2022-07-28T05:37:44.800Z,15.00
2022-07-28T05:38:44.794Z,15.03
2022-07-28T05:39:44.804Z,15.07
2022-07-28T05:40:44.768Z,15.10
2022-07-28T05:41:44.792Z,15.14
2022-07-28T05:42:44.725Z,15.17
2022-07-28T05:43:44.730Z,15.21
2022-07-28T05:44:44.742Z,15.25
2022-07-28T05:45:44.825Z,15.25
2022-07-28T05:46:44.778Z,15.28
2022-07-28T05:47:44.661Z,15.31
2022-07-28T05:48:44.727Z,15.33
2022-07-28T05:49:44.637Z,15.35
2022-07-28T05:50:44.739Z,15.39
2022-07-28T05:51:44.604Z,15.42
2022-07-28T05:52:44.595Z,15.42
2022-07-28T05:53:44.594Z,15.43
2022-07-28T05:54:44.598Z,15.46
2022-07-28T05:55:57.819Z,15.47
2022-07-28T05:56:49.835Z,15.52
2022-07-28T05:57:44.545Z,15.55
2022-07-28T05:58:44.548Z,15.57
2022-07-28T05:59:44.508Z,15.59
2022-07-28T06:00:44.563Z,15.62
2022-07-28T06:01:44.557Z,15.64
2022-07-28T06:02:44.599Z,15.65
2022-07-28T06:03:47.805Z,15.68
2022-07-28T06:04:44.457Z,15.72
2022-07-28T06:06:09.709Z,15.75
2022-07-28T06:06:44.435Z,15.79
2022-07-28T06:07:44.557Z,15.82
2022-07-28T06:08:44.488Z,15.86
2022-07-28T06:09:45.295Z,15.91
2022-07-28T06:10:44.403Z,15.94
2022-07-28T06:11:44.344Z,15.98
2022-07-28T06:12:44.331Z,15.98
2022-07-28T06:13:44.345Z,16.04
2022-07-28T06:14:44.309Z,16.05
2022-07-28T06:15:44.320Z,16.09
2022-07-28T06:16:44.320Z,16.13
2022-07-28T06:17:44.272Z,16.17
2022-07-28T06:18:44.282Z,16.23
2022-07-28T06:19:44.240Z,16.26
2022-07-28T06:20:44.266Z,16.31
2022-07-28T06:21:44.220Z,16.35
2022-07-28T06:22:44.206Z,16.38
2022-07-28T06:23:44.189Z,16.41
2022-07-28T06:24:44.206Z,16.46
2022-07-28T06:25:44.164Z,16.50
2022-07-28T06:26:45.056Z,16.54
2022-07-28T06:27:44.134Z,16.60
2022-07-28T06:28:44.119Z,16.61
2022-07-28T06:29:44.107Z,16.65
2022-07-28T06:30:44.117Z,16.69
2022-07-28T06:31:44.193Z,16.74
2022-07-28T06:32:44.056Z,16.78
2022-07-28T06:33:44.056Z,16.81
2022-07-28T06:34:44.053Z,16.89
2022-07-28T06:35:46.649Z,16.93
2022-07-28T06:36:44.074Z,16.96
2022-07-28T06:37:44.000Z,16.99
2022-07-28T06:38:43.979Z,17.01
2022-07-28T06:39:44.066Z,17.05
2022-07-28T06:40:43.984Z,17.11
2022-07-28T06:41:43.989Z,17.20
2022-07-28T06:42:43.951Z,17.26
2022-07-28T06:43:43.962Z,17.34
2022-07-28T06:44:58.527Z,17.44
2022-07-28T06:45:43.898Z,17.51
2022-07-28T06:46:43.994Z,17.59
2022-07-28T06:47:45.752Z,17.67
2022-07-28T06:48:43.930Z,17.72
2022-07-28T06:49:43.893Z,17.82
2022-07-28T06:50:43.851Z,17.90
2022-07-28T06:51:43.811Z,18.01
2022-07-28T06:52:43.814Z,18.10
2022-07-28T06:53:43.826Z,18.19
2022-07-28T06:54:48.809Z,18.29
2022-07-28T06:55:43.771Z,18.37
2022-07-28T06:56:43.768Z,18.45
2022-07-28T06:57:43.736Z,18.53
2022-07-28T06:58:46.506Z,18.58
2022-07-28T06:59:43.702Z,18.60
2022-07-28T07:00:43.799Z,18.66
2022-07-28T07:01:43.704Z,18.73
2022-07-28T07:02:43.653Z,18.77
2022-07-28T07:03:43.754Z,18.81
2022-07-28T07:04:43.798Z,18.83
2022-07-28T07:05:43.619Z,18.84
2022-07-28T07:06:43.636Z,18.86
2022-07-28T07:07:43.901Z,18.92
2022-07-28T07:08:43.579Z,18.95
2022-07-28T07:09:43.588Z,18.96
2022-07-28T07:10:43.556Z,18.99
2022-07-28T07:11:43.563Z,19.00
2022-07-28T07:12:43.520Z,19.04
2022-07-28T07:13:43.512Z,19.09
2022-07-28T07:14:43.512Z,19.11
2022-07-28T07:15:43.521Z,19.12
2022-07-28T07:16:43.606Z,19.14
2022-07-28T07:17:43.504Z,19.18
2022-07-28T07:18:43.448Z,19.21
2022-07-28T07:19:43.444Z,19.24
2022-07-28T07:20:43.420Z,19.27
2022-07-28T07:21:43.415Z,19.30
2022-07-28T07:22:43.428Z,19.33
2022-07-28T07:23:43.417Z,19.36
2022-07-28T07:24:43.360Z,19.41
2022-07-28T07:25:43.359Z,19.45
2022-07-28T07:26:43.336Z,19.49
2022-07-28T07:27:43.342Z,19.52
2022-07-28T07:28:43.319Z,19.56
2022-07-28T07:29:43.317Z,19.62
2022-07-28T07:30:43.304Z,19.64
2022-07-28T07:31:43.358Z,19.67
2022-07-28T07:32:43.298Z,19.70
2022-07-28T07:33:43.256Z,19.73
2022-07-28T07:34:43.238Z,19.74
2022-07-28T07:35:43.334Z,19.74
2022-07-28T07:36:43.249Z,19.76
2022-07-28T07:37:43.234Z,19.79
2022-07-28T07:38:43.178Z,19.81
2022-07-28T07:39:43.168Z,19.85
2022-07-28T07:40:43.174Z,19.89
2022-07-28T07:41:43.167Z,19.94
2022-07-28T07:42:43.120Z,19.99
2022-07-28T07:43:47.520Z,20.02
2022-07-28T07:44:43.099Z,20.06
2022-07-28T07:45:43.104Z,20.09
2022-07-28T07:46:43.125Z,20.13
2022-07-28T07:47:43.063Z,20.16
2022-07-28T07:48:43.113Z,20.21
2022-07-28T07:49:45.829Z,20.24
2022-07-28T07:50:43.026Z,20.26
2022-07-28T07:51:43.019Z,20.29
2022-07-28T07:52:42.986Z,20.34
2022-07-28T07:53:43.006Z,20.36
2022-07-28T07:54:42.978Z,20.41
2022-07-28T07:55:42.960Z,20.47
2022-07-28T07:56:42.935Z,20.48
2022-07-28T07:57:42.928Z,20.51
2022-07-28T07:58:43.037Z,20.55
2022-07-28T07:59:42.901Z,20.58
2022-07-28T08:00:42.884Z,20.59
2022-07-28T08:01:42.945Z,20.60
2022-07-28T08:02:42.870Z,20.65
2022-07-28T08:03:42.881Z,20.66
2022-07-28T08:04:42.974Z,20.69
2022-07-28T08:05:42.835Z,20.74
2022-07-28T08:06:42.807Z,20.80
2022-07-28T08:07:42.800Z,20.82
2022-07-28T08:08:48.024Z,20.87
2022-07-28T08:09:42.806Z,20.88
2022-07-28T08:10:42.766Z,20.93
2022-07-28T08:11:42.754Z,20.96
2022-07-28T08:12:42.778Z,20.99
2022-07-28T08:13:42.718Z,21.02
2022-07-28T08:14:42.694Z,21.06
2022-07-28T08:15:42.726Z,21.09
2022-07-28T08:16:42.725Z,21.15
2022-07-28T08:17:42.694Z,21.18
2022-07-28T08:18:42.645Z,21.20
2022-07-28T08:19:42.666Z,21.25
2022-07-28T08:20:42.621Z,21.29
2022-07-28T08:21:42.638Z,21.36
2022-07-28T08:22:42.617Z,21.42
2022-07-28T08:23:42.584Z,21.50
2022-07-28T08:24:42.580Z,21.54
2022-07-28T08:25:42.560Z,21.57
2022-07-28T08:26:42.558Z,21.61
2022-07-28T08:27:42.536Z,21.66
2022-07-28T08:28:42.506Z,21.72
2022-07-28T08:29:42.523Z,21.75
2022-07-28T08:30:42.515Z,21.79
2022-07-28T08:31:42.576Z,21.80
2022-07-28T08:32:42.459Z,21.85
2022-07-28T08:33:53.473Z,21.89
2022-07-28T08:34:42.447Z,21.92
2022-07-28T08:35:42.451Z,21.95
2022-07-28T08:36:42.404Z,21.98
2022-07-28T08:37:42.390Z,22.02
2022-07-28T08:38:42.380Z,22.07
2022-07-28T08:39:42.398Z,22.13
2022-07-28T08:40:42.355Z,22.18
2022-07-28T08:41:42.345Z,22.23
2022-07-28T08:42:42.350Z,22.25
2022-07-28T08:43:42.308Z,22.29
2022-07-28T08:44:42.291Z,22.35
2022-07-28T08:45:42.515Z,22.38
2022-07-28T08:46:42.338Z,22.41
2022-07-28T08:48:09.698Z,22.43
2022-07-28T08:48:42.313Z,22.43
2022-07-28T08:49:42.245Z,22.44
2022-07-28T08:50:42.251Z,22.45
2022-07-28T08:51:42.213Z,22.51
2022-07-28T08:52:42.201Z,22.59
2022-07-28T08:53:42.235Z,22.65
2022-07-28T08:54:42.181Z,22.66
2022-07-28T08:55:42.158Z,22.68
2022-07-28T08:56:48.116Z,22.66
2022-07-28T08:57:42.130Z,22.68
2022-07-28T08:58:42.120Z,22.69
2022-07-28T08:59:42.104Z,22.70
2022-07-28T09:00:42.180Z,22.73
2022-07-28T09:01:42.169Z,22.73
2022-07-28T09:02:42.288Z,22.78
2022-07-28T09:03:42.126Z,22.80
2022-07-28T09:04:42.038Z,22.83
2022-07-28T09:05:42.082Z,22.88
2022-07-28T09:06:42.031Z,22.93
2022-07-28T09:07:41.998Z,22.99
2022-07-28T09:08:43.547Z,23.05
2022-07-28T09:09:42.008Z,23.12
2022-07-28T09:10:41.979Z,23.18
2022-07-28T09:11:41.939Z,23.23
2022-07-28T09:12:41.930Z,23.24
2022-07-28T09:13:41.917Z,23.31
2022-07-28T09:14:41.900Z,23.34
2022-07-28T09:15:41.950Z,23.36
2022-07-28T09:16:41.910Z,23.40
2022-07-28T09:17:41.865Z,23.44
2022-07-28T09:18:41.853Z,23.54
2022-07-28T09:19:41.866Z,23.62
2022-07-28T09:20:41.843Z,23.66
2022-07-28T09:21:41.800Z,23.69
2022-07-28T09:22:41.808Z,23.78
2022-07-28T09:23:44.213Z,23.86
2022-07-28T09:24:41.809Z,23.87
2022-07-28T09:25:41.759Z,23.87
2022-07-28T09:26:41.770Z,23.92
2022-07-28T09:27:41.734Z,23.93
2022-07-28T09:28:41.716Z,23.98
2022-07-28T09:29:41.714Z,24.02
2022-07-28T09:30:45.629Z,24.02
2022-07-28T09:31:41.835Z,24.05
2022-07-28T09:32:41.669Z,24.08
2022-07-28T09:33:43.999Z,24.08
2022-07-28T09:34:41.645Z,24.11
2022-07-28T09:35:41.626Z,24.10
2022-07-28T09:36:41.664Z,24.11
2022-07-28T09:37:41.604Z,24.11
2022-07-28T09:38:41.621Z,24.14
2022-07-28T09:39:41.573Z,24.17
2022-07-28T09:40:41.560Z,24.20
2022-07-28T09:41:41.565Z,24.26
2022-07-28T09:42:41.534Z,24.29
2022-07-28T09:43:41.517Z,24.32
2022-07-28T09:44:47.379Z,24.36
2022-07-28T09:45:41.498Z,24.38
2022-07-28T09:46:41.710Z,24.39
2022-07-28T09:47:41.788Z,24.43
2022-07-28T09:48:41.723Z,24.48
2022-07-28T09:49:41.526Z,24.51
2022-07-28T09:50:41.423Z,24.53
2022-07-28T09:51:41.416Z,24.54
2022-07-28T09:52:41.409Z,24.58
2022-07-28T09:53:41.449Z,24.68
2022-07-28T09:54:41.624Z,24.70
2022-07-28T09:55:41.356Z,24.76
2022-07-28T09:56:41.360Z,24.80
2022-07-28T09:57:42.663Z,24.91
2022-07-28T09:58:41.323Z,24.98
2022-07-28T09:59:41.325Z,25.04
2022-07-28T10:00:41.292Z,25.07
2022-07-28T10:01:41.322Z,25.10
2022-07-28T10:02:41.310Z,25.08
2022-07-28T10:03:41.253Z,25.07
2022-07-28T10:04:41.269Z,25.07
2022-07-28T10:05:41.215Z,25.11
2022-07-28T10:06:41.205Z,25.14
2022-07-28T10:07:41.195Z,25.14
2022-07-28T10:08:42.014Z,25.21
2022-07-28T10:09:41.184Z,25.18
2022-07-28T10:10:41.207Z,25.22
2022-07-28T10:11:41.845Z,25.28
2022-07-28T10:12:41.126Z,25.33
2022-07-28T10:13:41.131Z,25.35
2022-07-28T10:14:41.104Z,25.40
2022-07-28T10:15:43.319Z,25.46
2022-07-28T10:16:41.141Z,25.54
2022-07-28T10:17:41.051Z,25.60
2022-07-28T10:18:41.051Z,25.63
2022-07-28T10:19:41.059Z,25.70
2022-07-28T10:20:41.025Z,25.72
2022-07-28T10:21:41.049Z,25.75
2022-07-28T10:22:43.287Z,25.78
2022-07-28T10:23:40.968Z,25.84
2022-07-28T10:24:40.966Z,25.91
2022-07-28T10:25:40.977Z,25.99
2022-07-28T10:26:40.960Z,26.03
2022-07-28T10:27:40.927Z,26.07
2022-07-28T10:28:42.396Z,26.10
2022-07-28T10:29:40.894Z,26.10
2022-07-28T10:30:40.934Z,26.09
2022-07-28T10:31:40.879Z,26.07
2022-07-28T10:32:40.884Z,26.07
2022-07-28T10:33:40.865Z,26.10
2022-07-28T10:34:40.854Z,26.15
2022-07-28T10:35:49.653Z,26.22
2022-07-28T10:36:40.829Z,26.29
2022-07-28T10:37:40.832Z,26.33
2022-07-28T10:38:40.782Z,26.38
2022-07-28T10:39:40.791Z,26.41
2022-07-28T10:40:40.765Z,26.45
2022-07-28T10:41:40.777Z,26.48
2022-07-28T10:42:40.740Z,26.52
2022-07-28T10:43:42.656Z,26.56
2022-07-28T10:44:40.712Z,26.60
2022-07-28T10:46:04.311Z,26.65
2022-07-28T10:46:40.755Z,26.66
2022-07-28T10:47:40.678Z,26.73
2022-07-28T10:48:40.709Z,26.77
2022-07-28T10:49:40.646Z,26.84
2022-07-28T10:50:40.627Z,26.90
2022-07-28T10:51:54.165Z,26.95
2022-07-28T10:52:50.119Z,26.99
2022-07-28T10:53:40.608Z,27.07
2022-07-28T10:54:41.168Z,27.12
2022-07-28T10:55:40.853Z,27.26
2022-07-28T10:56:40.548Z,27.35
2022-07-28T10:57:40.560Z,27.49
2022-07-28T10:58:40.529Z,27.52
2022-07-28T10:59:40.512Z,27.58
2022-07-28T11:00:54.973Z,27.67
2022-07-28T11:01:49.636Z,27.74
2022-07-28T11:02:40.659Z,27.77
2022-07-28T11:03:41.062Z,27.82
2022-07-28T11:04:40.470Z,27.82
2022-07-28T11:05:40.431Z,27.82
2022-07-28T11:06:40.415Z,27.78
2022-07-28T11:07:40.443Z,27.80
2022-07-28T11:08:40.422Z,27.85
2022-07-28T11:09:40.411Z,27.87
2022-07-28T11:10:40.383Z,27.92
2022-07-28T11:11:40.351Z,28.01
2022-07-28T11:12:40.390Z,28.04
2022-07-28T11:13:41.265Z,28.12
2022-07-28T11:14:40.356Z,28.23
2022-07-28T11:15:40.311Z,28.32
2022-07-28T11:16:40.539Z,28.41
2022-07-28T11:17:40.295Z,28.45
2022-07-28T11:18:40.368Z,28.51
2022-07-28T11:19:55.744Z,28.45
2022-07-28T11:20:40.243Z,28.49
2022-07-28T11:21:43.596Z,28.56
2022-07-28T11:22:40.239Z,28.60
2022-07-28T11:23:40.195Z,28.48
2022-07-28T11:24:40.193Z,28.35
2022-07-28T11:25:40.202Z,28.27
2022-07-28T11:26:40.156Z,28.37
2022-07-28T11:27:40.176Z,28.47
2022-07-28T11:28:40.131Z,28.57
2022-07-28T11:29:40.111Z,28.66
2022-07-28T11:30:40.177Z,28.76
2022-07-28T11:31:40.094Z,28.85
2022-07-28T11:32:44.280Z,28.91
2022-07-28T11:33:40.081Z,28.94
2022-07-28T11:34:40.064Z,29.01
2022-07-28T11:35:40.106Z,29.08
2022-07-28T11:36:40.087Z,29.13
2022-07-28T11:37:40.024Z,29.19
2022-07-28T11:38:40.030Z,29.26
2022-07-28T11:39:43.869Z,29.31
2022-07-28T11:40:39.981Z,29.35
2022-07-28T11:41:39.972Z,29.39
2022-07-28T11:42:39.953Z,29.38
2022-07-28T11:43:39.961Z,29.41
2022-07-28T11:44:39.928Z,29.44
2022-07-28T11:45:43.222Z,29.44
2022-07-28T11:46:40.024Z,29.50
2022-07-28T11:47:39.921Z,29.51
2022-07-28T11:48:40.031Z,29.57
2022-07-28T11:49:39.868Z,29.61
2022-07-28T11:50:39.848Z,29.63
2022-07-28T11:51:51.344Z,29.63
2022-07-28T11:52:39.833Z,29.60
2022-07-28T11:53:39.833Z,29.57
2022-07-28T11:54:39.818Z,29.53
2022-07-28T11:55:55.745Z,29.53
2022-07-28T11:56:39.775Z,29.56
2022-07-28T11:57:39.773Z,29.56
2022-07-28T11:58:39.763Z,29.54
2022-07-28T11:59:39.765Z,29.53
2022-07-28T12:00:39.723Z,29.54
2022-07-28T12:01:39.701Z,29.53
2022-07-28T12:02:39.794Z,29.59
2022-07-28T12:03:49.697Z,29.59
2022-07-28T12:04:39.724Z,29.63
2022-07-28T12:05:41.649Z,29.61
2022-07-28T12:06:39.655Z,29.66
2022-07-28T12:07:39.647Z,29.73
2022-07-28T12:08:39.616Z,29.79
2022-07-28T12:09:42.522Z,29.90
2022-07-28T12:10:56.092Z,30.03
2022-07-28T12:11:39.620Z,30.13
2022-07-28T12:12:39.569Z,30.13
2022-07-28T12:13:39.561Z,30.15
2022-07-28T12:14:39.554Z,30.13
2022-07-28T12:15:39.554Z,30.10
2022-07-28T12:16:39.966Z,30.10
2022-07-28T12:17:40.661Z,30.12
2022-07-28T12:18:39.498Z,30.18
2022-07-28T12:19:39.475Z,30.19
2022-07-28T12:20:39.467Z,30.23
2022-07-28T12:21:47.518Z,30.30
2022-07-28T12:22:39.468Z,30.34
2022-07-28T12:23:45.589Z,30.39
2022-07-28T12:24:45.132Z,30.27
2022-07-28T12:25:39.404Z,30.24
2022-07-28T12:26:40.919Z,30.19
2022-07-28T12:27:39.389Z,30.13
2022-07-28T12:28:39.392Z,30.10
2022-07-28T12:29:39.349Z,30.06
2022-07-28T12:30:39.348Z,30.00
2022-07-28T12:31:39.395Z,30.05
2022-07-28T12:32:39.332Z,30.15
2022-07-28T12:33:39.295Z,30.25
2022-07-28T12:34:39.284Z,30.34
2022-07-28T12:35:39.266Z,30.51
2022-07-28T12:36:39.257Z,30.63
2022-07-28T12:37:39.288Z,30.70
2022-07-28T12:38:39.254Z,30.78
2022-07-28T12:39:39.224Z,30.81
2022-07-28T12:40:39.215Z,30.80
2022-07-28T12:41:39.189Z,30.81
2022-07-28T12:42:39.200Z,30.81
2022-07-28T12:43:39.157Z,30.81
2022-07-28T12:44:39.198Z,30.84
2022-07-28T12:45:39.174Z,30.90
2022-07-28T12:46:39.144Z,30.97
2022-07-28T12:47:39.154Z,31.03
2022-07-28T12:48:39.172Z,31.10
2022-07-28T12:49:39.093Z,30.99
2022-07-28T12:50:39.074Z,30.94
2022-07-28T12:51:39.093Z,30.92
2022-07-28T12:52:39.057Z,31.02